UMMS/MSQ METAR and TAF weather

Enter ICAO airport designator
Station Type Date Time Source
UMMS METAR 2020/07/12 19:00 UTC NOAA

UMMS 121900Z 23002MPS 180V260 CAVOK 13/12 Q1019 R31R/290055 R31L/////// NOSIG


Station Type Date Time Source
UMMS Decoded METAR 2020/07/12 19:00 UTC NOAA

Minsk, Belarus (UMMS) 53-56N 027-38E 231M
Jul 12, 2020 - 03:00 PM EDT / 2020.07.12 1900 UTC
Wind: from the SW (230 degrees) at 4 MPH (4 KT) (direction variable):0
Visibility: greater than 7 mile(s):0
Temperature: 55 F (13 C)
Dew Point: 53 F (12 C)
Relative Humidity: 93%
Pressure (altimeter): 30.09 in. Hg (1019 hPa)
ob: UMMS 121900Z 23002MPS 180V260 CAVOK 13/12 Q1019 R31R/290055 R31L/////// NOSIG
cycle: 19

Station Type Date Time Source
UMMS TAF 2020/07/12 18:21 UTC NOAA

TAF TAF UMMS 121702Z 1218/1318 VRB02MPS 9999 SCT012
TEMPO 1218/1220 -SHRA SCT025CB
TEMPO 1220/1305 0700 FG SCT003
BECMG 1305/1307 33005G10MPS BKN015

Example: see airport list